sensor_id;sensor_type;location;lat;lon;timestamp;P1;durP1;ratioP1;P2;durP2;ratioP2
22005;SDS011;11167;46.988;15.470;2023-04-06T00:00:11;7.33;;;4.60;;
22005;SDS011;11167;46.988;15.470;2023-04-06T00:02:13;8.05;;;4.70;;
22005;SDS011;11167;46.988;15.470;2023-04-06T00:04:14;7.08;;;3.77;;
22005;SDS011;11167;46.988;15.470;2023-04-06T00:06:15;6.12;;;4.35;;
22005;SDS011;11167;46.988;15.470;2023-04-06T00:08:16;7.40;;;4.03;;
22005;SDS011;11167;46.988;15.470;2023-04-06T00:10:18;6.12;;;3.95;;
22005;SDS011;11167;46.988;15.470;2023-04-06T00:12:19;6.62;;;3.67;;
22005;SDS011;11167;46.988;15.470;2023-04-06T00:14:20;5.42;;;3.67;;
22005;SDS011;11167;46.988;15.470;2023-04-06T00:16:21;6.70;;;4.08;;
22005;SDS011;11167;46.988;15.470;2023-04-06T00:18:22;6.72;;;4.10;;
22005;SDS011;11167;46.988;15.470;2023-04-06T00:20:24;6.78;;;4.53;;
22005;SDS011;11167;46.988;15.470;2023-04-06T00:22:25;7.05;;;4.47;;
22005;SDS011;11167;46.988;15.470;2023-04-06T00:24:26;5.75;;;4.37;;
22005;SDS011;11167;46.988;15.470;2023-04-06T00:26:28;5.58;;;3.75;;
22005;SDS011;11167;46.988;15.470;2023-04-06T00:28:29;6.85;;;4.22;;
22005;SDS011;11167;46.988;15.470;2023-04-06T00:30:30;6.75;;;3.87;;
22005;SDS011;11167;46.988;15.470;2023-04-06T00:32:31;6.37;;;4.25;;
22005;SDS011;11167;46.988;15.470;2023-04-06T00:34:32;6.70;;;3.92;;
22005;SDS011;11167;46.988;15.470;2023-04-06T00:36:33;5.80;;;4.12;;
22005;SDS011;11167;46.988;15.470;2023-04-06T00:38:34;6.03;;;3.80;;
22005;SDS011;11167;46.988;15.470;2023-04-06T00:40:36;6.78;;;4.08;;
22005;SDS011;11167;46.988;15.470;2023-04-06T00:42:37;6.87;;;4.42;;
22005;SDS011;11167;46.988;15.470;2023-04-06T00:44:39;8.30;;;4.65;;
22005;SDS011;11167;46.988;15.470;2023-04-06T00:46:41;6.55;;;4.30;;
22005;SDS011;11167;46.988;15.470;2023-04-06T00:48:42;8.05;;;4.20;;
22005;SDS011;11167;46.988;15.470;2023-04-06T00:50:44;6.53;;;4.40;;
22005;SDS011;11167;46.988;15.470;2023-04-06T00:52:45;7.90;;;4.40;;
22005;SDS011;11167;46.988;15.470;2023-04-06T00:54:46;7.20;;;4.85;;
22005;SDS011;11167;46.988;15.470;2023-04-06T00:56:48;7.08;;;4.65;;
22005;SDS011;11167;46.988;15.470;2023-04-06T00:58:51;6.42;;;4.50;;
22005;SDS011;11167;46.988;15.470;2023-04-06T01:00:52;8.00;;;4.53;;
22005;SDS011;11167;46.988;15.470;2023-04-06T01:02:54;7.50;;;4.70;;
22005;SDS011;11167;46.988;15.470;2023-04-06T01:04:55;7.70;;;4.72;;
22005;SDS011;11167;46.988;15.470;2023-04-06T01:06:56;6.28;;;4.58;;
22005;SDS011;11167;46.988;15.470;2023-04-06T01:08:58;6.20;;;4.42;;
22005;SDS011;11167;46.988;15.470;2023-04-06T01:10:59;8.18;;;4.70;;
22005;SDS011;11167;46.988;15.470;2023-04-06T01:13:01;6.45;;;3.80;;
22005;SDS011;11167;46.988;15.470;2023-04-06T01:15:02;6.35;;;3.77;;
22005;SDS011;11167;46.988;15.470;2023-04-06T01:17:04;6.12;;;4.00;;
22005;SDS011;11167;46.988;15.470;2023-04-06T01:19:09;7.12;;;4.17;;
22005;SDS011;11167;46.988;15.470;2023-04-06T01:21:11;6.85;;;4.40;;
22005;SDS011;11167;46.988;15.470;2023-04-06T01:23:14;5.83;;;4.40;;
22005;SDS011;11167;46.988;15.470;2023-04-06T01:25:15;5.58;;;3.95;;
22005;SDS011;11167;46.988;15.470;2023-04-06T01:27:16;10.48;;;4.17;;
22005;SDS011;11167;46.988;15.470;2023-04-06T01:29:17;7.25;;;4.47;;
22005;SDS011;11167;46.988;15.470;2023-04-06T01:31:18;6.25;;;4.55;;
22005;SDS011;11167;46.988;15.470;2023-04-06T01:33:20;6.97;;;4.33;;
22005;SDS011;11167;46.988;15.470;2023-04-06T01:35:21;5.80;;;4.15;;
22005;SDS011;11167;46.988;15.470;2023-04-06T01:37:23;5.87;;;3.72;;
22005;SDS011;11167;46.988;15.470;2023-04-06T01:39:24;6.80;;;4.20;;
22005;SDS011;11167;46.988;15.470;2023-04-06T01:41:26;7.67;;;4.17;;
22005;SDS011;11167;46.988;15.470;2023-04-06T01:43:27;6.65;;;4.42;;
22005;SDS011;11167;46.988;15.470;2023-04-06T01:45:28;8.98;;;4.60;;
22005;SDS011;11167;46.988;15.470;2023-04-06T01:47:29;6.78;;;4.30;;
22005;SDS011;11167;46.988;15.470;2023-04-06T01:49:31;7.30;;;4.78;;
22005;SDS011;11167;46.988;15.470;2023-04-06T01:51:32;7.47;;;4.10;;
22005;SDS011;11167;46.988;15.470;2023-04-06T01:53:33;6.45;;;4.60;;
22005;SDS011;11167;46.988;15.470;2023-04-06T01:55:34;6.72;;;4.20;;
22005;SDS011;11167;46.988;15.470;2023-04-06T01:57:36;7.58;;;3.83;;
22005;SDS011;11167;46.988;15.470;2023-04-06T01:59:37;8.13;;;4.22;;
22005;SDS011;11167;46.988;15.470;2023-04-06T02:01:38;6.25;;;4.00;;
22005;SDS011;11167;46.988;15.470;2023-04-06T02:03:39;5.72;;;4.10;;
22005;SDS011;11167;46.988;15.470;2023-04-06T02:05:40;6.55;;;4.22;;
22005;SDS011;11167;46.988;15.470;2023-04-06T02:07:41;8.08;;;4.92;;
22005;SDS011;11167;46.988;15.470;2023-04-06T02:09:43;5.70;;;4.17;;
22005;SDS011;11167;46.988;15.470;2023-04-06T02:11:44;8.75;;;4.10;;
22005;SDS011;11167;46.988;15.470;2023-04-06T02:13:45;8.38;;;4.47;;
22005;SDS011;11167;46.988;15.470;2023-04-06T02:15:46;8.73;;;4.22;;
22005;SDS011;11167;46.988;15.470;2023-04-06T02:17:47;6.28;;;4.37;;
22005;SDS011;11167;46.988;15.470;2023-04-06T02:19:49;7.53;;;4.17;;
22005;SDS011;11167;46.988;15.470;2023-04-06T02:21:50;5.33;;;3.55;;
22005;SDS011;11167;46.988;15.470;2023-04-06T02:23:51;6.08;;;3.80;;
22005;SDS011;11167;46.988;15.470;2023-04-06T02:25:52;6.05;;;3.87;;
22005;SDS011;11167;46.988;15.470;2023-04-06T02:27:53;6.08;;;3.98;;
22005;SDS011;11167;46.988;15.470;2023-04-06T02:29:55;7.55;;;4.40;;
22005;SDS011;11167;46.988;15.470;2023-04-06T02:31:56;5.83;;;3.77;;
22005;SDS011;11167;46.988;15.470;2023-04-06T02:33:57;6.50;;;3.77;;
22005;SDS011;11167;46.988;15.470;2023-04-06T02:35:58;7.80;;;4.20;;
22005;SDS011;11167;46.988;15.470;2023-04-06T02:37:59;5.92;;;3.85;;
22005;SDS011;11167;46.988;15.470;2023-04-06T02:40:00;6.92;;;4.15;;
22005;SDS011;11167;46.988;15.470;2023-04-06T02:42:02;6.17;;;4.00;;
22005;SDS011;11167;46.988;15.470;2023-04-06T02:44:03;6.50;;;4.05;;
22005;SDS011;11167;46.988;15.470;2023-04-06T02:46:04;6.28;;;4.17;;
22005;SDS011;11167;46.988;15.470;2023-04-06T02:48:06;6.40;;;4.17;;
22005;SDS011;11167;46.988;15.470;2023-04-06T02:50:08;8.28;;;4.10;;
22005;SDS011;11167;46.988;15.470;2023-04-06T02:52:09;7.03;;;4.05;;
22005;SDS011;11167;46.988;15.470;2023-04-06T02:54:11;5.45;;;3.90;;
22005;SDS011;11167;46.988;15.470;2023-04-06T02:56:12;5.42;;;3.95;;
22005;SDS011;11167;46.988;15.470;2023-04-06T02:58:13;6.92;;;4.15;;
22005;SDS011;11167;46.988;15.470;2023-04-06T03:00:15;7.80;;;4.33;;
22005;SDS011;11167;46.988;15.470;2023-04-06T03:02:16;6.95;;;4.08;;
22005;SDS011;11167;46.988;15.470;2023-04-06T03:04:18;7.15;;;4.25;;
22005;SDS011;11167;46.988;15.470;2023-04-06T03:06:19;6.40;;;4.03;;
22005;SDS011;11167;46.988;15.470;2023-04-06T03:08:21;5.70;;;3.37;;
22005;SDS011;11167;46.988;15.470;2023-04-06T03:10:22;7.20;;;3.90;;
22005;SDS011;11167;46.988;15.470;2023-04-06T03:12:24;6.33;;;3.92;;
22005;SDS011;11167;46.988;15.470;2023-04-06T03:14:27;5.65;;;3.90;;
22005;SDS011;11167;46.988;15.470;2023-04-06T03:16:28;6.12;;;3.65;;
22005;SDS011;11167;46.988;15.470;2023-04-06T03:18:29;6.20;;;3.77;;
22005;SDS011;11167;46.988;15.470;2023-04-06T03:20:30;6.55;;;3.45;;
22005;SDS011;11167;46.988;15.470;2023-04-06T03:22:32;5.47;;;3.60;;
22005;SDS011;11167;46.988;15.470;2023-04-06T03:24:33;5.80;;;3.50;;
22005;SDS011;11167;46.988;15.470;2023-04-06T03:26:34;5.70;;;3.67;;
22005;SDS011;11167;46.988;15.470;2023-04-06T03:30:56;6.92;;;3.77;;
22005;SDS011;11167;46.988;15.470;2023-04-06T03:32:57;6.03;;;3.52;;
22005;SDS011;11167;46.988;15.470;2023-04-06T03:34:58;6.70;;;3.80;;
22005;SDS011;11167;46.988;15.470;2023-04-06T03:36:59;5.33;;;3.77;;
22005;SDS011;11167;46.988;15.470;2023-04-06T03:39:00;7.87;;;3.62;;
22005;SDS011;11167;46.988;15.470;2023-04-06T03:41:01;5.00;;;3.55;;
22005;SDS011;11167;46.988;15.470;2023-04-06T03:43:03;4.92;;;3.22;;
22005;SDS011;11167;46.988;15.470;2023-04-06T03:45:05;5.83;;;3.42;;
22005;SDS011;11167;46.988;15.470;2023-04-06T03:47:07;6.53;;;3.75;;
22005;SDS011;11167;46.988;15.470;2023-04-06T03:49:08;5.53;;;3.70;;
22005;SDS011;11167;46.988;15.470;2023-04-06T03:51:10;5.97;;;3.27;;
22005;SDS011;11167;46.988;15.470;2023-04-06T03:53:11;6.92;;;3.33;;
22005;SDS011;11167;46.988;15.470;2023-04-06T03:55:12;6.85;;;3.75;;
22005;SDS011;11167;46.988;15.470;2023-04-06T03:57:13;4.90;;;3.60;;
22005;SDS011;11167;46.988;15.470;2023-04-06T03:59:15;5.87;;;3.67;;
22005;SDS011;11167;46.988;15.470;2023-04-06T04:01:16;8.45;;;3.95;;
22005;SDS011;11167;46.988;15.470;2023-04-06T04:03:18;5.90;;;3.40;;
22005;SDS011;11167;46.988;15.470;2023-04-06T04:05:19;5.25;;;3.30;;
22005;SDS011;11167;46.988;15.470;2023-04-06T04:07:22;5.17;;;3.40;;
22005;SDS011;11167;46.988;15.470;2023-04-06T04:09:24;5.53;;;3.10;;
22005;SDS011;11167;46.988;15.470;2023-04-06T04:11:25;4.28;;;3.20;;
22005;SDS011;11167;46.988;15.470;2023-04-06T04:13:27;5.45;;;3.33;;
22005;SDS011;11167;46.988;15.470;2023-04-06T04:15:28;6.35;;;3.58;;
22005;SDS011;11167;46.988;15.470;2023-04-06T04:17:29;6.28;;;3.52;;
22005;SDS011;11167;46.988;15.470;2023-04-06T04:19:31;5.92;;;3.77;;
22005;SDS011;11167;46.988;15.470;2023-04-06T04:21:33;6.10;;;3.52;;
22005;SDS011;11167;46.988;15.470;2023-04-06T04:23:34;5.60;;;3.40;;
22005;SDS011;11167;46.988;15.470;2023-04-06T04:25:35;6.42;;;3.33;;
22005;SDS011;11167;46.988;15.470;2023-04-06T04:27:36;5.92;;;3.40;;
22005;SDS011;11167;46.988;15.470;2023-04-06T04:29:37;5.55;;;3.58;;
22005;SDS011;11167;46.988;15.470;2023-04-06T04:31:39;5.30;;;3.80;;
22005;SDS011;11167;46.988;15.470;2023-04-06T04:33:40;5.83;;;3.47;;
22005;SDS011;11167;46.988;15.470;2023-04-06T04:35:41;5.65;;;3.12;;
22005;SDS011;11167;46.988;15.470;2023-04-06T04:37:42;6.37;;;3.50;;
22005;SDS011;11167;46.988;15.470;2023-04-06T04:39:44;6.45;;;3.87;;
22005;SDS011;11167;46.988;15.470;2023-04-06T04:41:46;7.92;;;3.92;;
22005;SDS011;11167;46.988;15.470;2023-04-06T04:43:47;6.10;;;3.27;;
22005;SDS011;11167;46.988;15.470;2023-04-06T04:45:48;6.75;;;3.33;;
22005;SDS011;11167;46.988;15.470;2023-04-06T04:47:49;6.30;;;3.35;;
22005;SDS011;11167;46.988;15.470;2023-04-06T04:49:50;6.33;;;3.40;;
22005;SDS011;11167;46.988;15.470;2023-04-06T04:51:51;8.38;;;3.67;;
22005;SDS011;11167;46.988;15.470;2023-04-06T04:53:53;6.70;;;3.72;;
22005;SDS011;11167;46.988;15.470;2023-04-06T04:55:55;7.20;;;3.50;;
22005;SDS011;11167;46.988;15.470;2023-04-06T04:57:56;5.30;;;3.33;;
22005;SDS011;11167;46.988;15.470;2023-04-06T04:59:57;6.37;;;3.17;;
22005;SDS011;11167;46.988;15.470;2023-04-06T05:01:58;5.95;;;3.27;;
22005;SDS011;11167;46.988;15.470;2023-04-06T05:03:59;6.10;;;3.47;;
22005;SDS011;11167;46.988;15.470;2023-04-06T05:06:01;5.75;;;3.00;;
22005;SDS011;11167;46.988;15.470;2023-04-06T05:08:02;6.05;;;3.58;;
22005;SDS011;11167;46.988;15.470;2023-04-06T05:10:03;5.60;;;3.65;;
22005;SDS011;11167;46.988;15.470;2023-04-06T05:12:05;6.75;;;3.72;;
22005;SDS011;11167;46.988;15.470;2023-04-06T05:14:06;5.12;;;3.52;;
22005;SDS011;11167;46.988;15.470;2023-04-06T05:16:07;5.65;;;3.60;;
22005;SDS011;11167;46.988;15.470;2023-04-06T05:18:09;5.87;;;3.37;;
22005;SDS011;11167;46.988;15.470;2023-04-06T05:20:11;9.50;;;3.90;;
22005;SDS011;11167;46.988;15.470;2023-04-06T05:22:12;7.22;;;3.40;;
22005;SDS011;11167;46.988;15.470;2023-04-06T05:24:16;6.42;;;4.00;;
22005;SDS011;11167;46.988;15.470;2023-04-06T05:26:17;6.20;;;3.27;;
22005;SDS011;11167;46.988;15.470;2023-04-06T05:28:19;7.92;;;3.45;;
22005;SDS011;11167;46.988;15.470;2023-04-06T05:30:20;8.60;;;4.10;;
22005;SDS011;11167;46.988;15.470;2023-04-06T05:32:21;5.58;;;3.92;;
22005;SDS011;11167;46.988;15.470;2023-04-06T05:34:24;6.65;;;3.62;;
22005;SDS011;11167;46.988;15.470;2023-04-06T05:36:26;5.47;;;4.20;;
22005;SDS011;11167;46.988;15.470;2023-04-06T05:38:27;6.72;;;4.20;;
22005;SDS011;11167;46.988;15.470;2023-04-06T05:40:28;9.60;;;4.58;;
22005;SDS011;11167;46.988;15.470;2023-04-06T05:42:36;10.80;;;5.03;;
22005;SDS011;11167;46.988;15.470;2023-04-06T05:44:40;6.62;;;4.75;;
22005;SDS011;11167;46.988;15.470;2023-04-06T05:46:41;8.13;;;4.72;;
22005;SDS011;11167;46.988;15.470;2023-04-06T05:48:42;7.85;;;5.22;;
22005;SDS011;11167;46.988;15.470;2023-04-06T05:50:47;6.85;;;4.72;;
22005;SDS011;11167;46.988;15.470;2023-04-06T05:52:50;6.37;;;4.58;;
22005;SDS011;11167;46.988;15.470;2023-04-06T05:54:52;8.60;;;5.10;;
22005;SDS011;11167;46.988;15.470;2023-04-06T05:56:53;6.15;;;4.53;;
22005;SDS011;11167;46.988;15.470;2023-04-06T05:58:54;7.55;;;4.67;;
22005;SDS011;11167;46.988;15.470;2023-04-06T06:00:56;7.22;;;4.62;;
22005;SDS011;11167;46.988;15.470;2023-04-06T06:03:01;7.20;;;4.08;;
22005;SDS011;11167;46.988;15.470;2023-04-06T06:05:04;6.65;;;4.58;;
22005;SDS011;11167;46.988;15.470;2023-04-06T06:07:05;8.15;;;4.37;;
22005;SDS011;11167;46.988;15.470;2023-04-06T06:09:07;6.17;;;4.22;;
22005;SDS011;11167;46.988;15.470;2023-04-06T06:11:08;5.80;;;4.17;;
22005;SDS011;11167;46.988;15.470;2023-04-06T06:13:09;7.58;;;4.33;;
22005;SDS011;11167;46.988;15.470;2023-04-06T06:15:13;6.17;;;3.85;;
22005;SDS011;11167;46.988;15.470;2023-04-06T06:17:14;6.00;;;4.30;;
22005;SDS011;11167;46.988;15.470;2023-04-06T06:19:15;6.47;;;4.40;;
22005;SDS011;11167;46.988;15.470;2023-04-06T06:21:17;8.08;;;4.70;;
22005;SDS011;11167;46.988;15.470;2023-04-06T06:23:19;7.33;;;4.20;;
22005;SDS011;11167;46.988;15.470;2023-04-06T06:25:24;7.10;;;4.12;;
22005;SDS011;11167;46.988;15.470;2023-04-06T06:27:27;5.87;;;4.10;;
22005;SDS011;11167;46.988;15.470;2023-04-06T06:29:30;7.28;;;4.20;;
22005;SDS011;11167;46.988;15.470;2023-04-06T06:31:31;7.28;;;4.40;;
22005;SDS011;11167;46.988;15.470;2023-04-06T06:33:32;9.15;;;5.05;;
22005;SDS011;11167;46.988;15.470;2023-04-06T06:35:33;9.03;;;4.65;;
22005;SDS011;11167;46.988;15.470;2023-04-06T06:37:34;7.92;;;4.67;;
22005;SDS011;11167;46.988;15.470;2023-04-06T06:39:36;9.50;;;4.58;;
22005;SDS011;11167;46.988;15.470;2023-04-06T06:41:37;9.23;;;4.97;;
22005;SDS011;11167;46.988;15.470;2023-04-06T06:43:38;8.10;;;4.80;;
22005;SDS011;11167;46.988;15.470;2023-04-06T06:45:40;7.50;;;4.87;;
22005;SDS011;11167;46.988;15.470;2023-04-06T06:47:41;7.53;;;4.78;;
22005;SDS011;11167;46.988;15.470;2023-04-06T06:49:42;7.92;;;5.00;;
22005;SDS011;11167;46.988;15.470;2023-04-06T06:51:44;7.10;;;4.62;;
22005;SDS011;11167;46.988;15.470;2023-04-06T06:53:46;8.68;;;5.30;;
22005;SDS011;11167;46.988;15.470;2023-04-06T06:55:48;8.35;;;4.58;;
22005;SDS011;11167;46.988;15.470;2023-04-06T06:57:49;7.67;;;4.60;;
22005;SDS011;11167;46.988;15.470;2023-04-06T06:59:50;10.88;;;4.95;;
22005;SDS011;11167;46.988;15.470;2023-04-06T07:01:51;8.35;;;5.20;;
22005;SDS011;11167;46.988;15.470;2023-04-06T07:03:52;7.15;;;4.87;;
22005;SDS011;11167;46.988;15.470;2023-04-06T07:05:53;10.50;;;5.20;;
22005;SDS011;11167;46.988;15.470;2023-04-06T07:07:55;10.03;;;4.83;;
22005;SDS011;11167;46.988;15.470;2023-04-06T07:09:56;9.73;;;5.37;;
22005;SDS011;11167;46.988;15.470;2023-04-06T07:11:57;7.97;;;5.22;;
22005;SDS011;11167;46.988;15.470;2023-04-06T07:13:58;8.03;;;4.97;;
22005;SDS011;11167;46.988;15.470;2023-04-06T07:16:00;8.73;;;5.35;;
22005;SDS011;11167;46.988;15.470;2023-04-06T07:18:01;10.82;;;5.42;;
22005;SDS011;11167;46.988;15.470;2023-04-06T07:20:02;10.28;;;5.40;;
22005;SDS011;11167;46.988;15.470;2023-04-06T07:22:04;8.95;;;5.33;;
22005;SDS011;11167;46.988;15.470;2023-04-06T07:24:05;8.53;;;5.45;;
22005;SDS011;11167;46.988;15.470;2023-04-06T07:26:06;9.38;;;5.33;;
22005;SDS011;11167;46.988;15.470;2023-04-06T07:28:07;8.63;;;5.03;;
22005;SDS011;11167;46.988;15.470;2023-04-06T07:30:09;12.00;;;5.60;;
22005;SDS011;11167;46.988;15.470;2023-04-06T07:32:10;10.25;;;5.25;;
22005;SDS011;11167;46.988;15.470;2023-04-06T07:34:13;7.80;;;5.20;;
22005;SDS011;11167;46.988;15.470;2023-04-06T07:36:14;7.77;;;4.90;;
22005;SDS011;11167;46.988;15.470;2023-04-06T07:38:15;8.70;;;5.25;;
22005;SDS011;11167;46.988;15.470;2023-04-06T07:40:17;11.12;;;5.40;;
22005;SDS011;11167;46.988;15.470;2023-04-06T07:42:18;7.87;;;4.85;;
22005;SDS011;11167;46.988;15.470;2023-04-06T07:44:19;8.43;;;4.33;;
22005;SDS011;11167;46.988;15.470;2023-04-06T07:46:20;7.67;;;4.60;;
22005;SDS011;11167;46.988;15.470;2023-04-06T07:48:22;5.90;;;4.25;;
22005;SDS011;11167;46.988;15.470;2023-04-06T07:50:23;6.75;;;4.65;;
22005;SDS011;11167;46.988;15.470;2023-04-06T07:52:25;6.25;;;4.15;;
22005;SDS011;11167;46.988;15.470;2023-04-06T07:54:26;8.50;;;4.70;;
22005;SDS011;11167;46.988;15.470;2023-04-06T07:56:27;6.97;;;4.53;;
22005;SDS011;11167;46.988;15.470;2023-04-06T07:58:28;6.08;;;3.90;;
22005;SDS011;11167;46.988;15.470;2023-04-06T08:00:29;8.20;;;4.30;;
22005;SDS011;11167;46.988;15.470;2023-04-06T08:02:31;6.37;;;3.75;;
22005;SDS011;11167;46.988;15.470;2023-04-06T08:04:32;6.05;;;3.70;;
22005;SDS011;11167;46.988;15.470;2023-04-06T08:06:34;7.00;;;3.77;;
22005;SDS011;11167;46.988;15.470;2023-04-06T08:08:36;6.20;;;3.60;;
22005;SDS011;11167;46.988;15.470;2023-04-06T08:10:37;5.05;;;3.45;;
22005;SDS011;11167;46.988;15.470;2023-04-06T08:12:38;6.05;;;3.27;;
22005;SDS011;11167;46.988;15.470;2023-04-06T08:14:40;5.37;;;2.90;;
22005;SDS011;11167;46.988;15.470;2023-04-06T08:16:41;5.03;;;3.10;;
22005;SDS011;11167;46.988;15.470;2023-04-06T08:18:43;5.92;;;3.15;;
22005;SDS011;11167;46.988;15.470;2023-04-06T08:20:44;4.20;;;3.12;;
22005;SDS011;11167;46.988;15.470;2023-04-06T08:22:49;6.25;;;3.40;;
22005;SDS011;11167;46.988;15.470;2023-04-06T08:26:51;4.87;;;2.70;;
22005;SDS011;11167;46.988;15.470;2023-04-06T08:28:53;4.90;;;3.12;;
22005;SDS011;11167;46.988;15.470;2023-04-06T08:30:54;4.37;;;2.92;;
22005;SDS011;11167;46.988;15.470;2023-04-06T08:32:55;4.85;;;2.72;;
22005;SDS011;11167;46.988;15.470;2023-04-06T08:34:56;3.55;;;2.70;;
22005;SDS011;11167;46.988;15.470;2023-04-06T08:36:58;5.25;;;2.75;;
22005;SDS011;11167;46.988;15.470;2023-04-06T08:38:59;3.50;;;2.50;;
22005;SDS011;11167;46.988;15.470;2023-04-06T08:41:06;4.28;;;3.00;;
22005;SDS011;11167;46.988;15.470;2023-04-06T08:43:09;5.72;;;3.20;;
22005;SDS011;11167;46.988;15.470;2023-04-06T08:45:12;4.10;;;2.77;;
22005;SDS011;11167;46.988;15.470;2023-04-06T08:49:17;3.60;;;2.25;;
22005;SDS011;11167;46.988;15.470;2023-04-06T08:51:19;4.03;;;2.62;;
22005;SDS011;11167;46.988;15.470;2023-04-06T08:53:20;3.77;;;2.30;;
22005;SDS011;11167;46.988;15.470;2023-04-06T08:55:21;4.58;;;2.90;;
22005;SDS011;11167;46.988;15.470;2023-04-06T08:57:23;3.75;;;2.67;;
22005;SDS011;11167;46.988;15.470;2023-04-06T08:59:25;6.22;;;2.83;;
22005;SDS011;11167;46.988;15.470;2023-04-06T09:01:26;5.05;;;2.90;;
22005;SDS011;11167;46.988;15.470;2023-04-06T09:03:28;4.35;;;2.92;;
22005;SDS011;11167;46.988;15.470;2023-04-06T09:05:32;4.10;;;2.83;;
22005;SDS011;11167;46.988;15.470;2023-04-06T09:07:33;3.45;;;2.55;;
22005;SDS011;11167;46.988;15.470;2023-04-06T09:09:34;4.62;;;2.65;;
22005;SDS011;11167;46.988;15.470;2023-04-06T09:11:42;4.75;;;2.50;;
22005;SDS011;11167;46.988;15.470;2023-04-06T09:13:49;5.75;;;2.80;;
22005;SDS011;11167;46.988;15.470;2023-04-06T09:15:58;4.85;;;2.72;;
22005;SDS011;11167;46.988;15.470;2023-04-06T09:18:04;5.30;;;2.85;;
22005;SDS011;11167;46.988;15.470;2023-04-06T09:20:06;3.20;;;2.40;;
22005;SDS011;11167;46.988;15.470;2023-04-06T09:22:07;6.70;;;2.67;;
22005;SDS011;11167;46.988;15.470;2023-04-06T09:24:09;4.47;;;2.45;;
22005;SDS011;11167;46.988;15.470;2023-04-06T09:28:15;5.33;;;2.83;;
22005;SDS011;11167;46.988;15.470;2023-04-06T09:30:16;3.98;;;2.50;;
22005;SDS011;11167;46.988;15.470;2023-04-06T09:32:18;5.47;;;2.60;;
22005;SDS011;11167;46.988;15.470;2023-04-06T09:34:22;4.33;;;2.75;;
22005;SDS011;11167;46.988;15.470;2023-04-06T09:36:35;4.95;;;2.90;;
22005;SDS011;11167;46.988;15.470;2023-04-06T09:38:34;3.95;;;2.37;;
22005;SDS011;11167;46.988;15.470;2023-04-06T09:40:35;3.50;;;2.47;;
22005;SDS011;11167;46.988;15.470;2023-04-06T09:42:36;4.78;;;2.70;;
22005;SDS011;11167;46.988;15.470;2023-04-06T09:44:38;3.58;;;2.47;;
22005;SDS011;11167;46.988;15.470;2023-04-06T09:46:42;6.80;;;2.45;;
22005;SDS011;11167;46.988;15.470;2023-04-06T09:48:45;3.40;;;2.30;;
22005;SDS011;11167;46.988;15.470;2023-04-06T09:53:08;5.25;;;2.40;;
22005;SDS011;11167;46.988;15.470;2023-04-06T09:55:10;4.22;;;2.50;;
22005;SDS011;11167;46.988;15.470;2023-04-06T09:57:25;3.47;;;2.00;;
22005;SDS011;11167;46.988;15.470;2023-04-06T10:01:46;2.98;;;1.98;;
22005;SDS011;11167;46.988;15.470;2023-04-06T10:05:57;3.02;;;1.85;;
22005;SDS011;11167;46.988;15.470;2023-04-06T10:08:02;3.40;;;1.87;;
22005;SDS011;11167;46.988;15.470;2023-04-06T10:10:05;2.67;;;2.17;;
22005;SDS011;11167;46.988;15.470;2023-04-06T10:12:07;2.98;;;2.10;;
22005;SDS011;11167;46.988;15.470;2023-04-06T10:14:10;4.87;;;1.85;;
22005;SDS011;11167;46.988;15.470;2023-04-06T10:16:13;2.60;;;1.70;;
22005;SDS011;11167;46.988;15.470;2023-04-06T10:18:16;3.90;;;2.33;;
22005;SDS011;11167;46.988;15.470;2023-04-06T10:22:41;2.65;;;2.00;;
22005;SDS011;11167;46.988;15.470;2023-04-06T10:24:43;2.35;;;1.90;;
22005;SDS011;11167;46.988;15.470;2023-04-06T10:26:56;3.10;;;2.00;;
22005;SDS011;11167;46.988;15.470;2023-04-06T10:29:02;2.75;;;1.77;;
22005;SDS011;11167;46.988;15.470;2023-04-06T10:31:27;3.55;;;2.20;;
22005;SDS011;11167;46.988;15.470;2023-04-06T10:33:27;2.92;;;1.75;;
22005;SDS011;11167;46.988;15.470;2023-04-06T10:35:38;3.50;;;1.60;;
22005;SDS011;11167;46.988;15.470;2023-04-06T10:37:52;2.90;;;1.75;;
22005;SDS011;11167;46.988;15.470;2023-04-06T10:39:56;3.05;;;1.75;;
22005;SDS011;11167;46.988;15.470;2023-04-06T10:41:58;2.27;;;1.62;;
22005;SDS011;11167;46.988;15.470;2023-04-06T10:44:04;2.67;;;1.87;;
22005;SDS011;11167;46.988;15.470;2023-04-06T10:46:07;3.65;;;1.80;;
22005;SDS011;11167;46.988;15.470;2023-04-06T10:48:15;2.83;;;1.87;;
22005;SDS011;11167;46.988;15.470;2023-04-06T10:50:18;2.70;;;1.80;;
22005;SDS011;11167;46.988;15.470;2023-04-06T10:52:20;3.17;;;1.82;;
22005;SDS011;11167;46.988;15.470;2023-04-06T10:54:21;1.92;;;1.40;;
22005;SDS011;11167;46.988;15.470;2023-04-06T10:56:24;3.40;;;1.67;;
22005;SDS011;11167;46.988;15.470;2023-04-06T10:58:27;2.75;;;1.70;;
22005;SDS011;11167;46.988;15.470;2023-04-06T11:00:28;2.70;;;1.60;;
22005;SDS011;11167;46.988;15.470;2023-04-06T11:02:30;2.42;;;1.32;;
22005;SDS011;11167;46.988;15.470;2023-04-06T11:08:58;1.77;;;1.42;;
22005;SDS011;11167;46.988;15.470;2023-04-06T11:11:03;3.62;;;1.60;;
22005;SDS011;11167;46.988;15.470;2023-04-06T11:13:16;2.20;;;1.45;;
22005;SDS011;11167;46.988;15.470;2023-04-06T11:15:17;2.58;;;1.50;;
22005;SDS011;11167;46.988;15.470;2023-04-06T11:17:25;4.08;;;1.80;;
22005;SDS011;11167;46.988;15.470;2023-04-06T11:19:28;3.47;;;1.92;;
22005;SDS011;11167;46.988;15.470;2023-04-06T11:23:48;4.28;;;2.00;;
22005;SDS011;11167;46.988;15.470;2023-04-06T11:25:50;4.20;;;2.12;;
22005;SDS011;11167;46.988;15.470;2023-04-06T11:27:52;3.72;;;1.60;;
22005;SDS011;11167;46.988;15.470;2023-04-06T11:29:55;3.55;;;1.40;;
22005;SDS011;11167;46.988;15.470;2023-04-06T11:32:00;2.80;;;1.50;;
22005;SDS011;11167;46.988;15.470;2023-04-06T11:34:08;4.53;;;1.50;;
22005;SDS011;11167;46.988;15.470;2023-04-06T11:36:10;2.52;;;1.67;;
22005;SDS011;11167;46.988;15.470;2023-04-06T11:38:11;3.00;;;1.70;;
22005;SDS011;11167;46.988;15.470;2023-04-06T11:40:12;2.80;;;1.80;;
22005;SDS011;11167;46.988;15.470;2023-04-06T11:42:20;2.37;;;1.50;;
22005;SDS011;11167;46.988;15.470;2023-04-06T11:44:31;3.75;;;1.87;;
22005;SDS011;11167;46.988;15.470;2023-04-06T11:46:40;2.62;;;1.60;;
22005;SDS011;11167;46.988;15.470;2023-04-06T11:48:44;6.58;;;1.85;;
22005;SDS011;11167;46.988;15.470;2023-04-06T11:50:46;3.60;;;2.30;;
22005;SDS011;11167;46.988;15.470;2023-04-06T11:52:57;3.98;;;2.50;;
22005;SDS011;11167;46.988;15.470;2023-04-06T11:55:10;3.20;;;1.87;;
22005;SDS011;11167;46.988;15.470;2023-04-06T11:57:18;2.33;;;1.50;;
22005;SDS011;11167;46.988;15.470;2023-04-06T11:59:20;4.92;;;1.70;;
22005;SDS011;11167;46.988;15.470;2023-04-06T12:01:22;3.47;;;1.42;;
22005;SDS011;11167;46.988;15.470;2023-04-06T12:03:23;2.02;;;1.50;;
22005;SDS011;11167;46.988;15.470;2023-04-06T12:05:25;4.03;;;1.32;;
22005;SDS011;11167;46.988;15.470;2023-04-06T12:07:26;2.45;;;1.40;;
22005;SDS011;11167;46.988;15.470;2023-04-06T12:09:27;6.08;;;1.55;;
22005;SDS011;11167;46.988;15.470;2023-04-06T12:11:28;1.32;;;1.17;;
22005;SDS011;11167;46.988;15.470;2023-04-06T12:13:29;2.58;;;1.30;;
22005;SDS011;11167;46.988;15.470;2023-04-06T12:15:31;4.00;;;1.40;;
22005;SDS011;11167;46.988;15.470;2023-04-06T12:17:33;2.25;;;1.30;;
22005;SDS011;11167;46.988;15.470;2023-04-06T12:19:34;1.37;;;1.20;;
22005;SDS011;11167;46.988;15.470;2023-04-06T12:21:35;2.58;;;1.50;;
22005;SDS011;11167;46.988;15.470;2023-04-06T12:23:40;1.77;;;1.10;;
22005;SDS011;11167;46.988;15.470;2023-04-06T12:25:42;1.42;;;1.10;;
22005;SDS011;11167;46.988;15.470;2023-04-06T12:27:44;1.65;;;1.05;;